Portada
METAR-TAF:

METAR-TAF

Aeroports :

Sumburgh, Shetland, Escòcia

latitud: 59-53N, longitud: 001-18W, altitud: 5 m

Observació

L'informe es va fer fa 43 minuts, a les 20:50 UTC
Vent 6 kt del Est
Temperatura 6°C
Humitat 81%
Pressió 1017 hPa
Visibilitat 10 km o més

METAR: EGPB 152050Z AUTO 08006KT 9999 FEW018/// 06/03 Q1017

Hora: 21:33 (21:33 UTC)

Pronòstic

L'informe es va fer fa 1 hora i 36 minuts, a les 19:57 UTC
Pronòstic vàlid del 15 a les 21 UTC al 16 a les 06 UTC
Vent 7 kt del Est
Visibilitat 10 km o més
Núvols disperses a una alçada de 3000 ft
Probabilitat 40% :
Temporalment
l' 16 a les 00 UTC al 16 a les 06 UTC
Visibilitat: 6000 m
Cel ennuvolat a una alçada de 1400 ft
xàfecs de pluja

TAF: EGPB 151957Z 1521/1606 08007KT 9999 SCT030 PROB40 TEMPO 1600/1606 6000 SHRA BKN014

Observacions i pronòstics meteorològics de més de 4000 aeroports (METAR i TAF).

Les estacions disponibles són els punts grocs i vermells al mapa.

Posi el ratolí al punt desitjat per veure el nom de l'estació.

Feu clic per veure les observacions i els pronòstics meteorològics.

Per canviar el mapa: feu clic els botons verds amb una creu de color negre per apropar; al botó verd amb un guió per allunyar la imatge; o en les fletxes verdes per a mapes adjacents.


METAR-TAF: